Time;durP1;ratioP1;P1;durP2;ratioP2;P2;SDS_P1;SDS_P2;PMS_P1;PMS_P2;Temp;Humidity;BMP_temperature;BMP_pressure;BME280_temperature;BME280_humidity;BME280_pressure;Samples;Min_cycle;Max_cycle;Signal;HPM_P1;HPM_P2
2021/06/01 00:00:22;;;;;;;5.05;2.63;;;;;;;9.62;65.08;100014.62;366036;146;865679;-58
2021/06/01 00:01:24;;;;;;;5.49;2.59;;;;;;;9.50;65.46;100010.33;367036;144;865237;-59
2021/06/01 00:02:26;;;;;;;7.50;2.63;;;;;;;9.33;66.12;100018.98;368102;144;859337;-59
2021/06/01 00:03:27;;;;;;;3.90;2.74;;;;;;;9.25;66.41;100018.13;366204;147;858825;-59
2021/06/01 00:04:29;;;;;;;8.14;3.00;;;;;;;9.21;66.59;100013.84;366061;144;866015;-58
2021/06/01 00:05:31;;;;;;;4.88;2.76;;;;;;;9.23;66.71;100008.65;371267;144;864817;-58
2021/06/01 00:06:34;;;;;;;6.93;2.78;;;;;;;9.26;66.55;100012.10;370454;144;857327;-58
2021/06/01 00:07:36;;;;;;;11.23;3.08;;;;;;;9.30;66.57;100015.52;366531;144;861023;-57
2021/06/01 00:08:38;;;;;;;6.60;2.85;;;;;;;9.33;66.38;100011.23;369387;144;857277;-58
2021/06/01 00:09:39;;;;;;;6.12;2.92;;;;;;;9.35;66.30;100008.62;373108;144;857704;-59
2021/06/01 00:10:43;;;;;;;8.21;3.29;;;;;;;9.37;66.25;100013.81;367336;144;857339;-59
2021/06/01 00:11:45;;;;;;;7.56;3.61;;;;;;;9.39;66.13;100012.08;366866;144;864901;-58
2021/06/01 00:12:46;;;;;;;5.71;2.99;;;;;;;9.40;66.03;100012.06;366029;144;865814;-59
2021/06/01 00:13:48;;;;;;;4.56;2.95;;;;;;;9.42;65.98;100015.50;370765;144;857355;-59
2021/06/01 00:14:50;;;;;;;4.38;2.71;;;;;;;9.41;65.95;100015.52;368898;145;864910;-59
2021/06/01 00:15:52;;;;;;;6.09;2.82;;;;;;;9.42;65.90;100018.09;367414;144;864787;-59
2021/06/01 00:16:55;;;;;;;4.01;2.71;;;;;;;9.42;65.86;100012.92;367784;144;863658;-59
2021/06/01 00:17:57;;;;;;;7.52;3.04;;;;;;;9.42;65.82;100010.33;368556;144;859711;-59
2021/06/01 00:18:58;;;;;;;6.57;2.79;;;;;;;9.44;65.80;100013.77;366211;144;857432;-59
2021/06/01 00:20:00;;;;;;;11.34;3.47;;;;;;;9.44;65.74;100018.09;366455;144;867013;-59
2021/06/01 00:21:02;;;;;;;6.22;2.83;;;;;;;9.43;65.67;100009.47;366869;144;864892;-59
2021/06/01 00:22:04;;;;;;;5.72;2.77;;;;;;;9.44;65.58;100011.19;371896;144;864851;-59
2021/06/01 00:23:06;;;;;;;5.79;2.71;;;;;;;9.42;65.61;100012.92;366268;147;857327;-59
2021/06/01 00:24:08;;;;;;;4.49;2.71;;;;;;;9.43;65.53;100013.80;368682;144;857316;-59
2021/06/01 00:25:11;;;;;;;6.85;2.87;;;;;;;9.42;65.45;100014.66;366060;147;864907;-59
2021/06/01 00:26:14;;;;;;;5.74;2.46;;;;;;;9.41;65.37;100005.19;366123;144;858604;-60
2021/06/01 00:27:16;;;;;;;7.49;2.81;;;;;;;9.39;65.35;100000.00;366333;144;859303;-60
2021/06/01 00:28:18;;;;;;;6.97;2.60;;;;;;;9.37;65.36;100001.73;368012;144;860001;-59
2021/06/01 00:29:19;;;;;;;6.36;3.04;;;;;;;9.37;65.36;100001.73;368289;144;865155;-59
2021/06/01 00:30:23;;;;;;;5.37;2.43;;;;;;;9.37;65.36;100001.73;366137;147;865818;-59
2021/06/01 00:31:25;;;;;;;4.25;2.81;;;;;;;9.30;65.62;100008.66;366353;144;857619;-59
2021/06/01 00:32:27;;;;;;;5.33;2.39;;;;;;;9.29;65.67;100004.34;367004;144;864988;-60
2021/06/01 00:33:28;;;;;;;5.49;2.90;;;;;;;9.28;65.67;100006.92;368866;144;858113;-60
2021/06/01 00:34:30;;;;;;;6.01;3.28;;;;;;;9.27;65.70;100006.08;370271;144;866110;-58
2021/06/01 00:35:34;;;;;;;7.65;2.91;;;;;;;9.25;65.72;100007.80;366033;144;867475;-59
2021/06/01 00:36:36;;;;;;;5.29;2.54;;;;;;;9.25;65.78;100004.34;365891;147;865522;-58
2021/06/01 00:37:37;;;;;;;7.88;2.94;;;;;;;9.23;65.73;100006.94;366204;144;857914;-58
2021/06/01 00:38:39;;;;;;;6.23;2.63;;;;;;;9.20;65.80;100012.95;367638;144;864869;-59
2021/06/01 00:39:41;;;;;;;7.19;3.24;;;;;;;;;;366284;144;857214;-58
2021/06/01 00:40:43;;;;;;;4.73;2.77;;;;;;;;;;365987;144;865017;-58
2021/06/01 00:41:45;;;;;;;7.80;3.17;;;;;;;;;;366111;144;857767;-58
2021/06/01 00:42:46;;;;;;;3.52;2.56;;;;;;;;;;366046;144;864860;-60
2021/06/01 00:43:48;;;;;;;6.24;2.69;;;;;;;;;;368401;144;857463;-60
2021/06/01 00:44:51;;;;;;;9.70;2.64;;;;;;;;;;367892;144;857443;-58
2021/06/01 00:45:52;;;;;;;6.33;2.41;;;;;;;;;;367251;144;857259;-58
2021/06/01 00:46:54;;;;;;;7.06;2.63;;;;;;;;;;366029;146;857167;-58
2021/06/01 00:47:56;;;;;;;4.00;2.86;;;;;;;;;;365893;144;864795;-58
2021/06/01 00:48:57;;;;;;;8.61;2.20;;;;;;;;;;367180;144;866905;-58
2021/06/01 00:49:59;;;;;;;4.13;2.35;;;;;;;;;;367905;144;859818;-57
2021/06/01 00:51:00;;;;;;;5.31;2.79;;;;;;;;;;367612;144;865719;-59
2021/06/01 00:52:02;;;;;;;12.57;3.11;;;;;;;;;;365904;147;864689;-58
2021/06/01 00:53:04;;;;;;;7.83;2.67;;;;;;;;;;366060;144;864904;-58
2021/06/01 00:54:06;;;;;;;7.36;2.75;;;;;;;;;;367062;144;866737;-58
2021/06/01 00:55:08;;;;;;;4.54;2.54;;;;;;;;;;369184;144;857245;-58
2021/06/01 00:56:10;;;;;;;4.42;2.67;;;;;;;;;;370887;144;857903;-58
2021/06/01 00:57:12;;;;;;;8.18;2.48;;;;;;;;;;371626;144;858605;-58
2021/06/01 00:58:13;;;;;;;4.39;2.28;;;;;;;;;;368077;144;857864;-58
2021/06/01 00:59:15;;;;;;;4.66;2.60;;;;;;;;;;368007;144;864806;-58
2021/06/01 01:01:20;;;;;;;5.20;3.03;;;;;;;;;;367381;144;857546;-58
2021/06/01 01:02:21;;;;;;;6.97;2.59;;;;;;;;;;368024;144;857452;-58
2021/06/01 01:03:23;;;;;;;5.66;2.22;;;;;;;;;;366216;147;858900;-58
2021/06/01 01:04:26;;;;;;;4.96;2.55;;;;;;;;;;366008;144;858974;-59
2021/06/01 01:05:35;;;;;;;6.17;3.49;;;;;;;;;;365948;144;865953;-58
2021/06/01 01:06:42;;;;;;;3.64;2.47;;;;;;;;;;365841;144;859371;-59
2021/06/01 01:07:44;;;;;;;7.13;2.54;;;;;;;;;;366480;144;858032;-58
2021/06/01 01:08:53;;;;;;;5.64;2.77;;;;;;;;;;369630;144;859540;-59
2021/06/01 01:09:54;;;;;;;5.20;2.54;;;;;;;;;;365993;144;857799;-59
2021/06/01 01:11:01;;;;;;;3.55;2.29;;;;;;;;;;366196;147;857732;-59
2021/06/01 01:12:05;;;;;;;7.01;2.81;;;;;;;;;;365998;144;857306;-58
2021/06/01 01:13:06;;;;;;;4.87;2.53;;;;;;;;;;367252;144;857216;-58
2021/06/01 01:14:09;;;;;;;5.36;2.59;;;;;;;;;;366155;147;866697;-58
2021/06/01 01:15:10;;;;;;;6.66;2.26;;;;;;;;;;366440;144;862206;-58
2021/06/01 01:16:12;;;;;;;5.80;2.48;;;;;;;;;;366108;144;857276;-59
2021/06/01 01:17:18;;;;;;;4.89;2.46;;;;;;;;;;366235;144;857228;-58
2021/06/01 01:18:20;;;;;;;4.13;2.33;;;;;;;;;;365745;144;857522;-58
2021/06/01 01:19:26;;;;;;;4.82;2.84;;;;;;;;;;366100;147;858910;-58
2021/06/01 01:20:30;;;;;;;4.73;2.61;;;;;;;;;;360324;144;857836;-58
2021/06/01 01:21:37;;;;;;;4.70;2.41;;;;;;;;;;366443;144;857230;-58
2021/06/01 01:22:42;;;;;;;4.60;2.43;;;;;;;;;;366367;144;858325;-58
2021/06/01 01:23:45;;;;;;;6.09;2.59;;;;;;;;;;367932;144;858580;-58
2021/06/01 01:24:54;;;;;;;7.82;2.84;;;;;;;;;;366298;144;857274;-58
2021/06/01 01:26:16;;;;;;;3.42;2.35;;;;;;;;;;366629;144;857735;-58
2021/06/01 01:27:23;;;;;;;7.47;2.42;;;;;;;;;;365905;147;857247;-58
2021/06/01 01:28:44;;;;;;;4.10;2.13;;;;;;;;;;365919;144;860676;-58
2021/06/01 01:29:46;;;;;;;4.89;2.41;;;;;;;;;;365865;144;857581;-58
2021/06/01 01:30:52;;;;;;;5.86;2.57;;;;;;;;;;366079;146;857776;-58
2021/06/01 01:31:54;;;;;;;6.20;2.44;;;;;;;;;;366646;144;857708;-58
2021/06/01 01:33:02;;;;;;;2.79;2.33;;;;;;;;;;366130;147;857930;-58
2021/06/01 01:34:04;;;;;;;6.22;2.30;;;;;;;;;;365768;144;864827;-60
2021/06/01 01:35:07;;;;;;;6.33;2.82;;;;;;;;;;366010;144;857176;-57
2021/06/01 01:36:10;;;;;;;4.30;2.39;;;;;;;;;;370955;144;857271;-59
2021/06/01 01:37:12;;;;;;;3.78;2.65;;;;;;;;;;369347;144;865865;-59
2021/06/01 01:38:14;;;;;;;9.12;2.77;;;;;;;;;;366174;144;858460;-59
2021/06/01 01:39:15;;;;;;;3.84;2.41;;;;;;;;;;367412;144;857871;-57
2021/06/01 01:40:20;;;;;;;4.53;2.30;;;;;;;;;;366465;144;864880;-59
2021/06/01 01:41:22;;;;;;;4.23;2.30;;;;;;;;;;365989;146;857635;-57
2021/06/01 01:42:24;;;;;;;6.76;2.56;;;;;;;;;;366898;144;857336;-58
2021/06/01 01:43:29;;;;;;;5.62;2.75;;;;;;;;;;366123;144;858778;-57
2021/06/01 01:44:35;;;;;;;5.82;2.36;;;;;;;;;;365849;147;865986;-58
2021/06/01 01:45:38;;;;;;;7.02;2.64;;;;;;;;;;368398;144;857433;-58
2021/06/01 01:49:01;;;;;;;5.28;2.96;;;;;;;;;;365908;147;858326;-59
2021/06/01 01:50:04;;;;;;;6.95;2.33;;;;;;;;;;365917;147;859789;-59
2021/06/01 01:51:14;;;;;;;3.45;2.12;;;;;;;;;;371105;144;858230;-59
2021/06/01 01:52:16;;;;;;;5.71;2.66;;;;;;;;;;366039;147;864793;-59
2021/06/01 01:53:18;;;;;;;5.24;2.41;;;;;;;;;;365842;144;859093;-59
2021/06/01 01:54:23;;;;;;;2.99;2.44;;;;;;;;;;364381;147;866724;-59
2021/06/01 01:55:24;;;;;;;4.22;2.51;;;;;;;;;;362224;145;865695;-59
2021/06/01 01:56:31;;;;;;;2.76;2.11;;;;;;;;;;363933;144;859617;-59
2021/06/01 01:57:33;;;;;;;5.81;2.68;;;;;;;;;;361858;148;859396;-59
2021/06/01 01:58:34;;;;;;;5.08;2.69;;;;;;;;;;364801;144;857867;-59
2021/06/01 01:59:36;;;;;;;7.05;2.66;;;;;;;;;;361197;145;858961;-59
2021/06/01 02:00:39;;;;;;;5.79;2.58;;;;;;;;;;359579;146;857955;-59
2021/06/01 02:01:41;;;;;;;5.03;2.30;;;;;;;;;;364281;144;857746;-58
2021/06/01 02:02:47;;;;;;;6.83;2.34;;;;;;;;;;362127;146;858941;-59
2021/06/01 02:03:50;;;;;;;7.81;2.69;;;;;;;;;;366201;144;858037;-59
2021/06/01 02:04:51;;;;;;;7.95;2.45;;;;;;;;;;363089;145;859594;-57
2021/06/01 02:05:53;;;;;;;5.33;2.42;;;;;;;;;;361691;146;857206;-57
2021/06/01 02:06:55;;;;;;;5.59;2.34;;;;;;;;;;365783;144;857346;-60
2021/06/01 02:07:57;;;;;;;5.28;2.43;;;;;;;;;;364508;146;864933;-60
2021/06/01 02:08:58;;;;;;;6.53;2.41;;;;;;;;;;362210;145;865308;-60
2021/06/01 02:10:03;;;;;;;3.89;2.54;;;;;;;;;;364313;144;857382;-60
2021/06/01 02:11:04;;;;;;;3.84;2.51;;;;;;;;;;361816;146;864898;-61
2021/06/01 02:12:06;;;;;;;3.93;2.29;;;;;;;;;;363150;145;857467;-60
2021/06/01 02:13:07;;;;;;;3.83;2.29;;;;;;;;;;365675;146;857333;-60
2021/06/01 02:14:09;;;;;;;3.29;2.57;;;;;;;;;;367722;146;859305;-60
2021/06/01 02:15:11;;;;;;;9.62;2.82;;;;;;;;;;364477;144;864889;-57
2021/06/01 02:16:13;;;;;;;6.97;2.73;;;;;;;;;;364385;146;857333;-57
2021/06/01 02:17:15;;;;;;;4.78;2.61;;;;;;;;;;361755;147;857118;-57
2021/06/01 02:18:16;;;;;;;5.26;2.79;;;;;;;;;;364996;145;857370;-58
2021/06/01 02:19:19;;;;;;;6.53;2.78;;;;;;;;;;364973;146;866871;-57
2021/06/01 02:20:22;;;;;;;3.86;2.46;;;;;;;;;;363942;144;867145;-57
2021/06/01 02:24:32;;;;;;;5.13;2.56;;;;;;;;;;365200;147;859688;-58
2021/06/01 02:25:35;;;;;;;5.44;2.82;;;;;;;;;;362818;144;857173;-58
2021/06/01 02:26:47;;;;;;;6.06;2.56;;;;;;;;;;368373;146;858579;-59
2021/06/01 02:27:58;;;;;;;4.68;2.48;;;;;;;;;;364822;145;859458;-59
2021/06/01 02:29:02;;;;;;;6.88;2.31;;;;;;;;;;362395;144;857221;-57
2021/06/01 02:30:06;;;;;;;6.12;2.68;;;;;;;;;;363187;146;857825;-57
2021/06/01 02:31:17;;;;;;;6.14;2.67;;;;;;;;;;363848;145;858274;-58
2021/06/01 02:32:19;;;;;;;6.56;2.75;;;;;;;;;;364605;144;864772;-58
2021/06/01 02:33:21;;;;;;;3.50;2.79;;;;;;;;;;362526;145;859867;-58
2021/06/01 02:34:22;;;;;;;5.73;2.53;;;;;;;;;;363334;144;857428;-57
2021/06/01 02:35:29;;;;;;;4.30;2.44;;;;;;;;;;361737;148;857364;-58
2021/06/01 02:36:34;;;;;;;7.57;2.83;;;;;;;;;;364552;144;865915;-58
2021/06/01 02:37:38;;;;;;;6.16;2.54;;;;;;;;;;370170;144;857192;-58
2021/06/01 02:38:39;;;;;;;5.78;2.54;;;;;;;;;;365644;145;857277;-57
2021/06/01 02:39:41;;;;;;;3.99;2.61;;;;;;;;;;362605;144;857184;-58
2021/06/01 02:40:44;;;;;;;4.47;2.67;;;;;;;;;;363252;146;857417;-58
2021/06/01 02:41:46;;;;;;;4.55;2.47;;;;;;;;;;363549;146;857291;-57
2021/06/01 02:42:48;;;;;;;4.97;2.32;;;;;;;;;;363146;144;864913;-59
2021/06/01 02:43:49;;;;;;;3.74;2.59;;;;;;;;;;362953;146;857292;-58
2021/06/01 02:44:51;;;;;;;3.42;2.41;;;;;;;;;;366068;144;859926;-58
2021/06/01 02:45:53;;;;;;;5.36;2.81;;;;;;;;;;363027;144;866510;-58
2021/06/01 02:46:54;;;;;;;4.24;2.81;;;;;;;;;;363379;146;866577;-58
2021/06/01 02:47:56;;;;;;;5.04;2.40;;;;;;;;;;365791;144;866003;-58
2021/06/01 02:48:57;;;;;;;7.07;2.45;;;;;;;;;;363877;147;859043;-58
2021/06/01 02:49:59;;;;;;;4.80;2.40;;;;;;;;;;364921;146;861262;-59
2021/06/01 02:51:14;;;;;;;5.97;2.57;;;;;;;;;;362966;144;859964;-59
2021/06/01 02:52:05;;;;;;;8.76;2.72;;;;;;;;;;362865;146;857415;-58
2021/06/01 02:53:06;;;;;;;3.33;2.42;;;;;;;;;;363862;146;857335;-58
2021/06/01 02:54:08;;;;;;;6.04;2.93;;;;;;;;;;363855;144;859185;-58
2021/06/01 02:55:10;;;;;;;5.22;2.47;;;;;;;;;;368783;144;858988;-58
2021/06/01 02:56:13;;;;;;;2.99;2.59;;;;;;;;;;366846;144;864735;-58
2021/06/01 02:57:15;;;;;;;4.81;2.67;;;;;;;;;;366914;144;864813;-60
2021/06/01 02:58:17;;;;;;;3.72;2.56;;;;;;;;;;368918;144;857862;-58
2021/06/01 02:59:19;;;;;;;4.59;2.63;;;;;;;;;;367760;144;865561;-58
2021/06/01 03:00:22;;;;;;;4.31;2.55;;;;;;;;;;366156;144;857478;-57
2021/06/01 03:01:25;;;;;;;5.20;2.75;;;;;;;;;;365927;144;857416;-59
2021/06/01 03:02:27;;;;;;;4.57;2.75;;;;;;;;;;366129;144;856401;-59
2021/06/01 03:03:28;;;;;;;6.05;2.75;;;;;;;;;;366323;144;857458;-59
2021/06/01 03:04:30;;;;;;;6.26;2.86;;;;;;;;;;365856;144;857375;-59
2021/06/01 03:05:32;;;;;;;3.53;2.51;;;;;;;;;;360950;147;864935;-59
2021/06/01 03:06:35;;;;;;;6.99;2.49;;;;;;;;;;362311;144;859038;-59
2021/06/01 03:07:38;;;;;;;5.65;2.79;;;;;;;;;;366348;144;857453;-60
2021/06/01 03:08:39;;;;;;;6.91;2.86;;;;;;;;;;366590;144;864809;-58
2021/06/01 03:09:41;;;;;;;8.26;2.67;;;;;;;;;;367354;144;859059;-57
2021/06/01 03:10:43;;;;;;;2.95;2.19;;;;;;;;;;365764;144;864927;-57
2021/06/01 03:11:47;;;;;;;6.27;2.36;;;;;;;;;;368116;144;857371;-60
2021/06/01 03:12:54;;;;;;;6.78;2.78;;;;;;;;;;368269;144;857268;-59
2021/06/01 03:13:52;;;;;;;5.16;2.65;;;;;;;;;;368046;144;858745;-57
2021/06/01 03:14:54;;;;;;;5.07;2.75;;;;;;;;;;366007;144;857915;-56
2021/06/01 03:15:55;;;;;;;8.46;2.51;;;;;;;;;;365994;144;858780;-57
2021/06/01 03:16:57;;;;;;;7.46;2.88;;;;;;;;;;368773;144;864937;-57
2021/06/01 03:17:58;;;;;;;5.49;2.86;;;;;;;;;;367627;144;864928;-58
2021/06/01 03:19:00;;;;;;;6.43;2.62;;;;;;;;;;366865;144;857449;-57
2021/06/01 03:20:03;;;;;;;3.39;2.55;;;;;;;;;;367911;144;864766;-59
2021/06/01 03:21:04;;;;;;;7.07;2.64;;;;;;;;;;366284;144;864729;-59
2021/06/01 03:22:06;;;;;;;5.48;2.31;;;;;;;;;;368492;144;864926;-60
2021/06/01 03:23:07;;;;;;;4.01;2.77;;;;;;;;;;369192;144;864939;-60
2021/06/01 03:24:09;;;;;;;3.13;2.30;;;;;;;;;;366430;144;857394;-62
2021/06/01 03:25:11;;;;;;;6.08;2.61;;;;;;;;;;368329;144;865002;-61
2021/06/01 03:26:13;;;;;;;5.24;2.90;;;;;;;;;;367965;144;864277;-63
2021/06/01 03:27:14;;;;;;;3.98;2.79;;;;;;;;;;368815;144;856072;-62
2021/06/01 03:28:16;;;;;;;6.86;2.97;;;;;;;;;;368125;144;863775;-62
2021/06/01 03:29:18;;;;;;;7.29;2.52;;;;;;;;;;368505;144;856781;-61
2021/06/01 03:30:21;;;;;;;4.04;2.59;;;;;;;;;;367586;144;856411;-63
2021/06/01 03:33:16;;;;;;;5.58;2.50;;;;;;;10.15;64.62;100027.34;372884;142;868361;-63
2021/06/01 03:34:18;;;;;;;2.96;2.47;;;;;;;10.03;64.92;100026.53;365932;145;859860;-63
2021/06/01 03:35:20;;;;;;;5.79;2.65;;;;;;;10.04;64.93;100029.96;363201;145;857415;-63
2021/06/01 03:36:23;;;;;;;5.05;2.47;;;;;;;10.05;64.85;100029.97;364334;145;864956;-63
2021/06/01 03:37:26;;;;;;;8.59;3.14;;;;;;;10.06;64.81;100020.47;363519;145;859605;-63
2021/06/01 03:38:28;;;;;;;4.47;2.54;;;;;;;10.09;64.84;100028.25;362237;145;866910;-63
2021/06/01 03:39:31;;;;;;;6.06;2.78;;;;;;;10.11;64.99;100023.92;365092;144;857365;-63
2021/06/01 03:40:36;;;;;;;9.97;3.72;;;;;;;10.15;64.90;100027.34;362443;147;864742;-63
2021/06/01 03:41:38;;;;;;;7.66;3.19;;;;;;;10.17;64.57;100020.42;362513;145;859028;-63
2021/06/01 03:42:40;;;;;;;6.36;2.72;;;;;;;10.15;64.49;100029.92;362678;145;864836;-63
2021/06/01 03:43:42;;;;;;;5.51;2.75;;;;;;;10.09;64.70;100026.50;363194;146;864897;-63
2021/06/01 03:44:44;;;;;;;5.79;3.06;;;;;;;10.14;64.73;100025.62;362883;145;857363;-62
2021/06/01 03:45:46;;;;;;;5.27;3.07;;;;;;;10.10;64.02;100022.20;362823;145;858292;-62
2021/06/01 03:46:48;;;;;;;3.90;2.77;;;;;;;10.11;64.28;100021.34;362990;146;859583;-62
2021/06/01 03:47:50;;;;;;;4.33;2.76;;;;;;;10.14;64.53;100029.08;364020;145;857843;-62
2021/06/01 03:48:51;;;;;;;7.77;3.01;;;;;;;10.18;64.49;100025.61;362657;148;866449;-62
2021/06/01 03:49:54;;;;;;;7.18;3.48;;;;;;;;;;362255;146;857413;-63
2021/06/01 03:50:56;;;;;;;6.01;2.87;;;;;;;;;;363767;144;866737;-63
2021/06/01 03:51:58;;;;;;;6.31;3.41;;;;;;;;;;364764;146;857334;-62
2021/06/01 03:53:00;;;;;;;8.23;3.04;;;;;;;;;;363944;145;866411;-62
2021/06/01 03:54:01;;;;;;;8.22;2.79;;;;;;;;;;363512;144;865705;-62
2021/06/01 03:55:04;;;;;;;4.51;2.59;;;;;;;;;;363289;146;858059;-62
2021/06/01 03:56:06;;;;;;;5.46;3.38;;;;;;;;;;363394;144;864875;-62
2021/06/01 03:57:11;;;;;;;3.25;2.76;;;;;;;;;;362768;146;866392;-62
2021/06/01 03:58:12;;;;;;;3.83;3.00;;;;;;;;;;362507;148;857371;-62
2021/06/01 03:59:14;;;;;;;5.99;3.24;;;;;;;;;;362470;145;859126;-62
2021/06/01 04:00:19;;;;;;;4.28;2.74;;;;;;;;;;363477;146;865238;-62
2021/06/01 04:01:20;;;;;;;5.59;2.96;;;;;;;;;;367939;146;859164;-63
2021/06/01 04:02:23;;;;;;;5.27;2.85;;;;;;;;;;362692;145;859559;-62
2021/06/01 04:03:24;;;;;;;6.80;2.85;;;;;;;;;;362789;147;857452;-62
2021/06/01 04:04:26;;;;;;;4.84;2.58;;;;;;;;;;363362;145;856469;-62
2021/06/01 04:05:28;;;;;;;4.39;2.70;;;;;;;;;;364248;145;861316;-62
2021/06/01 04:06:31;;;;;;;5.29;2.79;;;;;;;;;;363032;146;865855;-62
2021/06/01 04:07:33;;;;;;;3.35;2.59;;;;;;;;;;359004;147;859070;-61
2021/06/01 04:08:35;;;;;;;5.64;2.59;;;;;;;;;;356701;148;863138;-61
2021/06/01 04:09:36;;;;;;;5.54;2.54;;;;;;;;;;362603;145;865463;-62
2021/06/01 04:10:40;;;;;;;5.44;2.70;;;;;;;;;;363445;145;859376;-62
2021/06/01 04:11:42;;;;;;;4.83;2.87;;;;;;;;;;362736;146;859489;-62
2021/06/01 04:12:44;;;;;;;6.29;3.01;;;;;;;;;;363188;145;859995;-63
2021/06/01 04:13:46;;;;;;;5.51;3.34;;;;;;;;;;362867;144;865597;-62
2021/06/01 04:14:48;;;;;;;3.59;2.50;;;;;;;;;;363601;146;856433;-63
2021/06/01 04:15:49;;;;;;;4.36;2.77;;;;;;;;;;362936;145;863819;-63
2021/06/01 04:16:52;;;;;;;5.27;2.80;;;;;;;;;;363651;146;864191;-63
2021/06/01 04:17:53;;;;;;;3.41;2.91;;;;;;;;;;361085;147;856682;-63
2021/06/01 04:18:55;;;;;;;2.99;2.62;;;;;;;;;;358968;148;863868;-63
2021/06/01 04:19:57;;;;;;;6.72;2.62;;;;;;;;;;368130;146;863766;-63
2021/06/01 04:20:59;;;;;;;4.80;2.84;;;;;;;;;;364684;145;856742;-63
2021/06/01 04:22:01;;;;;;;7.48;2.83;;;;;;;;;;363510;145;863798;-64
2021/06/01 04:23:03;;;;;;;4.39;2.85;;;;;;;;;;365447;146;863702;-63
2021/06/01 04:24:05;;;;;;;3.91;2.76;;;;;;;;;;363016;145;856136;-63
2021/06/01 04:25:07;;;;;;;4.65;2.87;;;;;;;;;;363873;145;863720;-63
2021/06/01 04:26:09;;;;;;;6.67;2.82;;;;;;;;;;365195;144;856567;-63
2021/06/01 04:27:11;;;;;;;8.07;3.07;;;;;;;;;;363842;145;856384;-63
2021/06/01 04:28:13;;;;;;;5.46;3.18;;;;;;;;;;363016;146;863825;-63
2021/06/01 04:29:14;;;;;;;6.74;3.61;;;;;;;;;;368252;146;864256;-63
2021/06/01 04:30:16;;;;;;;7.47;2.91;;;;;;;;;;363252;145;856309;-64
2021/06/01 04:33:13;;;;;;;3.86;2.59;;;;;;;11.19;58.64;100011.97;370974;142;881833;-60
2021/06/01 04:34:16;;;;;;;3.57;2.38;;;;;;;11.09;57.24;100011.19;363305;147;857567;-60
2021/06/01 04:35:17;;;;;;;7.43;2.72;;;;;;;11.04;57.55;100007.77;363388;146;865782;-60
2021/06/01 04:36:22;;;;;;;3.92;2.49;;;;;;;11.05;57.90;100012.08;364530;146;861187;-58
2021/06/01 04:37:23;;;;;;;5.21;2.96;;;;;;;11.07;58.27;100010.34;363411;147;857376;-60
2021/06/01 04:38:26;;;;;;;5.01;3.06;;;;;;;11.12;58.65;100005.12;365363;146;858875;-59
2021/06/01 04:39:27;;;;;;;4.63;2.82;;;;;;;11.16;58.34;100005.97;363298;146;864712;-63
2021/06/01 04:40:30;;;;;;;4.11;2.52;;;;;;;11.20;57.60;100008.50;364762;147;857691;-60
2021/06/01 04:41:32;;;;;;;5.53;3.01;;;;;;;11.25;57.76;100006.73;364918;146;859162;-61
2021/06/01 04:42:34;;;;;;;5.03;2.52;;;;;;;11.30;57.84;100009.29;364558;147;859002;-61
2021/06/01 04:43:36;;;;;;;4.93;3.24;;;;;;;11.34;57.63;100003.20;365170;146;857768;-65
2021/06/01 04:44:38;;;;;;;6.18;2.89;;;;;;;11.40;57.25;100000.54;363524;146;857326;-62
2021/06/01 04:45:40;;;;;;;3.61;2.67;;;;;;;11.40;57.70;100013.50;362082;147;857938;-62
2021/06/01 04:46:43;;;;;;;6.70;2.61;;;;;;;11.38;56.18;100006.60;365515;146;857684;-61
2021/06/01 04:47:45;;;;;;;5.14;2.20;;;;;;;11.42;56.23;100008.28;364338;146;865808;-60
2021/06/01 04:48:46;;;;;;;6.52;2.76;;;;;;;11.44;56.22;100008.28;364699;145;865787;-57
2021/06/01 04:49:49;;;;;;;8.06;2.58;;;;;;;11.44;56.22;100008.28;364133;145;866670;-59
2021/06/01 04:50:51;;;;;;;7.70;2.57;;;;;;;11.56;56.31;100008.16;354913;150;865003;-60
2021/06/01 04:51:53;;;;;;;5.09;2.37;;;;;;;11.55;55.82;100004.69;358111;150;857792;-62
2021/06/01 04:52:55;;;;;;;4.15;2.79;;;;;;;11.57;55.81;100006.41;363726;145;865783;-63
2021/06/01 04:53:58;;;;;;;6.43;2.95;;;;;;;11.65;56.15;100004.58;365820;147;867506;-62
2021/06/01 04:54:59;;;;;;;6.25;2.93;;;;;;;11.69;56.25;100007.14;364115;147;857416;-61
2021/06/01 04:56:01;;;;;;;7.52;2.31;;;;;;;11.77;55.25;100003.59;364474;146;864775;-59
2021/06/01 04:57:06;;;;;;;5.87;2.85;;;;;;;11.82;55.29;100007.86;363747;147;857284;-58
2021/06/01 04:58:07;;;;;;;3.29;2.04;;;;;;;;;;362040;146;864790;-60
2021/06/01 04:59:09;;;;;;;4.76;2.31;;;;;;;;;;364011;146;859536;-59
2021/06/01 05:00:11;;;;;;;6.39;2.52;;;;;;;;;;361288;147;863176;-60
2021/06/01 05:01:13;;;;;;;5.48;2.09;;;;;;;;;;364187;146;857637;-59
2021/06/01 05:02:14;;;;;;;4.09;2.26;;;;;;;;;;365633;147;859273;-59
2021/06/01 05:03:16;;;;;;;5.67;2.56;;;;;;;;;;365617;146;865426;-60
2021/06/01 05:04:18;;;;;;;6.48;2.80;;;;;;;;;;365136;145;859902;-60
2021/06/01 05:05:19;;;;;;;6.84;2.56;;;;;;;;;;364521;145;864925;-60
2021/06/01 05:06:21;;;;;;;3.98;2.26;;;;;;;;;;360677;147;857357;-59
2021/06/01 05:07:23;;;;;;;3.58;2.37;;;;;;;;;;365223;146;857399;-59
2021/06/01 05:08:25;;;;;;;6.63;2.41;;;;;;;;;;364451;147;859602;-59
2021/06/01 05:09:26;;;;;;;6.04;2.81;;;;;;;;;;353734;149;859022;-59
2021/06/01 05:10:28;;;;;;;4.58;2.49;;;;;;;;;;365959;146;865007;-59
2021/06/01 05:11:31;;;;;;;8.45;2.36;;;;;;;;;;362626;147;857264;-60
2021/06/01 05:12:33;;;;;;;9.27;2.46;;;;;;;;;;364666;146;857345;-62
2021/06/01 05:13:34;;;;;;;6.11;2.44;;;;;;;;;;362348;146;857257;-59
2021/06/01 05:14:36;;;;;;;5.04;2.32;;;;;;;;;;363072;147;866062;-62
2021/06/01 05:15:37;;;;;;;4.95;2.62;;;;;;;;;;362054;146;858637;-59
2021/06/01 05:16:41;;;;;;;4.14;2.35;;;;;;;;;;356171;150;857460;-59
2021/06/01 05:17:43;;;;;;;4.57;2.09;;;;;;;;;;355546;147;857310;-60
2021/06/01 05:18:45;;;;;;;3.01;1.84;;;;;;;;;;361562;146;857251;-60
2021/06/01 05:19:46;;;;;;;5.56;2.34;;;;;;;;;;365394;147;859333;-61
2021/06/01 05:20:50;;;;;;;3.61;1.98;;;;;;;;;;363281;146;860317;-58
2021/06/01 05:21:51;;;;;;;3.34;2.13;;;;;;;;;;361248;147;857714;-60
2021/06/01 05:22:53;;;;;;;3.35;2.19;;;;;;;;;;363701;146;856479;-60
2021/06/01 05:23:54;;;;;;;3.35;2.24;;;;;;;;;;364549;146;856424;-60
2021/06/01 05:24:56;;;;;;;5.82;2.24;;;;;;;;;;365073;147;856741;-59
2021/06/01 05:25:57;;;;;;;5.64;2.28;;;;;;;;;;364491;146;857065;-59
2021/06/01 05:26:59;;;;;;;8.24;2.39;;;;;;;;;;361001;147;856564;-58
2021/06/01 05:28:01;;;;;;;3.45;2.13;;;;;;;;;;362256;147;864906;-59
2021/06/01 05:29:02;;;;;;;5.04;2.29;;;;;;;;;;363670;146;857812;-59
2021/06/01 05:30:06;;;;;;;6.72;2.20;;;;;;;;;;359168;147;864891;-58
2021/06/01 05:31:40;;;;;;;3.95;2.09;;;;;;;;;;362718;145;857396;-59
2021/06/01 05:33:49;;;;;;;4.63;1.65;;;;;;;;;;362742;145;857805;-59
2021/06/01 05:34:57;;;;;;;2.27;1.81;;;;;;;;;;361525;147;857872;-59
2021/06/01 05:35:54;;;;;;;6.06;1.82;;;;;;;;;;364819;147;857277;-57
2021/06/01 05:36:56;;;;;;;4.64;1.86;;;;;;;;;;364060;146;857167;-57
2021/06/01 05:37:57;;;;;;;5.54;1.91;;;;;;;;;;363980;147;857743;-58
2021/06/01 05:38:59;;;;;;;3.39;1.71;;;;;;;;;;364842;146;864940;-57
2021/06/01 05:40:00;;;;;;;3.94;1.91;;;;;;;;;;361728;146;865387;-56
2021/06/01 05:41:02;;;;;;;5.47;1.81;;;;;;;;;;359535;147;864645;-58
2021/06/01 05:42:04;;;;;;;6.11;1.66;;;;;;;;;;362349;146;857392;-59
2021/06/01 05:43:06;;;;;;;3.04;1.63;;;;;;;;;;364123;147;864981;-57
2021/06/01 05:44:07;;;;;;;3.77;1.58;;;;;;;;;;365815;147;857352;-59
2021/06/01 05:45:10;;;;;;;4.82;1.72;;;;;;;;;;363056;146;864840;-58
2021/06/01 05:46:12;;;;;;;5.53;1.83;;;;;;;;;;360732;147;866650;-57
2021/06/01 05:47:15;;;;;;;3.38;1.67;;;;;;;;;;365705;147;858732;-58
2021/06/01 05:48:17;;;;;;;4.97;1.60;;;;;;;;;;363219;145;864579;-59
2021/06/01 05:49:19;;;;;;;2.85;1.56;;;;;;;;;;362687;147;859237;-59
2021/06/01 05:50:21;;;;;;;2.81;1.65;;;;;;;;;;364815;146;860168;-58
2021/06/01 05:51:30;;;;;;;12.66;2.09;;;;;;;;;;366067;146;859364;-59
2021/06/01 06:13:31;;;;;;;5.63;1.20;;;;;;;13.29;48.01;99997.03;374186;141;881384;-58
2021/06/01 06:14:33;;;;;;;4.95;1.41;;;;;;;13.27;47.77;100003.16;369270;144;858692;-62
2021/06/01 06:15:35;;;;;;;1.27;1.06;;;;;;;13.33;46.75;99996.97;366285;144;857937;-59
2021/06/01 06:16:43;;;;;;;10.40;1.34;;;;;;;13.38;47.11;99995.14;366041;144;859014;-60
2021/06/01 06:18:03;;;;;;;3.21;1.70;;;;;;;13.41;47.04;99998.56;368379;144;859951;-59